createdAt,value
2024-03-01T00:01:45.164Z,60.96
2024-03-01T00:04:13.518Z,60.75
2024-03-01T00:06:43.763Z,60.64
2024-03-01T00:09:11.697Z,60.74
2024-03-01T00:11:39.769Z,60.57
2024-03-01T00:14:07.923Z,60.54
2024-03-01T00:16:35.839Z,60.63
2024-03-01T00:19:04.052Z,60.74
2024-03-01T00:21:31.959Z,61.33
2024-03-01T00:24:01.111Z,61.88
2024-03-01T00:26:29.260Z,61.40
2024-03-01T00:28:57.060Z,61.04
2024-03-01T00:31:25.064Z,61.16
2024-03-01T00:33:53.387Z,61.26
2024-03-01T00:36:21.428Z,60.85
2024-03-01T00:38:49.286Z,60.73
2024-03-01T00:41:18.788Z,61.03
2024-03-01T00:43:46.671Z,60.80
2024-03-01T00:46:14.681Z,60.72
2024-03-01T00:48:42.848Z,60.91
2024-03-01T00:51:10.718Z,60.75
2024-03-01T00:53:38.666Z,61.12
2024-03-01T00:56:07.396Z,61.13
2024-03-01T00:58:36.752Z,61.00
2024-03-01T01:01:04.968Z,60.94
2024-03-01T01:03:33.509Z,61.17
2024-03-01T01:06:01.811Z,61.32
2024-03-01T01:08:30.055Z,61.43
2024-03-01T01:11:03.814Z,61.50
2024-03-01T01:13:38.535Z,61.51
2024-03-01T01:16:07.803Z,61.31
2024-03-01T01:18:42.148Z,62.03
2024-03-01T01:21:10.614Z,61.31
2024-03-01T01:23:38.615Z,62.00
2024-03-01T01:26:06.497Z,62.16
2024-03-01T01:28:34.641Z,61.15
2024-03-01T01:31:03.905Z,60.98
2024-03-01T01:33:31.737Z,60.87
2024-03-01T01:35:59.843Z,61.20
2024-03-01T01:38:27.708Z,61.53
2024-03-01T01:40:55.589Z,61.85
2024-03-01T01:43:23.848Z,61.49
2024-03-01T01:45:51.784Z,62.15
2024-03-01T01:48:20.978Z,62.26
2024-03-01T01:50:49.188Z,61.85
2024-03-01T01:53:21.719Z,61.79
2024-03-01T01:55:55.567Z,61.71
2024-03-01T01:58:23.883Z,61.40
2024-03-01T02:00:52.418Z,61.19
2024-03-01T02:03:23.591Z,61.22
2024-03-01T02:05:52.021Z,61.36
2024-03-01T02:08:20.207Z,61.18
2024-03-01T02:10:50.307Z,61.26
2024-03-01T02:13:24.134Z,61.42
2024-03-01T02:15:52.862Z,61.88
2024-03-01T02:18:23.095Z,61.82
2024-03-01T02:20:58.957Z,61.79
2024-03-01T02:23:28.575Z,61.98
2024-03-01T02:25:56.865Z,62.30
2024-03-01T02:28:24.828Z,62.87
2024-03-01T02:30:53.405Z,62.68
2024-03-01T02:33:21.769Z,63.20
2024-03-01T02:35:49.731Z,62.90
2024-03-01T02:38:17.999Z,62.27
2024-03-01T02:40:47.222Z,62.34
2024-03-01T02:43:15.199Z,61.81
2024-03-01T02:45:43.362Z,61.98
2024-03-01T02:48:11.298Z,62.01
2024-03-01T02:50:39.237Z,61.64
2024-03-01T02:53:08.330Z,61.81
2024-03-01T02:55:36.321Z,61.61
2024-03-01T02:58:06.500Z,61.69
2024-03-01T03:00:35.267Z,61.52
2024-03-01T03:03:03.128Z,61.55
2024-03-01T03:05:31.034Z,61.55
2024-03-01T03:07:59.820Z,61.60
2024-03-01T03:10:28.152Z,61.58
2024-03-01T03:12:56.029Z,61.46
2024-03-01T03:15:26.258Z,61.43
2024-03-01T03:17:54.208Z,61.62
2024-03-01T03:20:22.778Z,61.44
2024-03-01T03:22:50.933Z,61.34
2024-03-01T03:25:18.864Z,61.99
2024-03-01T03:27:46.877Z,62.85
2024-03-01T03:30:15.210Z,62.71
2024-03-01T03:32:44.525Z,62.41
2024-03-01T03:35:12.693Z,61.99
2024-03-01T03:37:40.765Z,62.53
2024-03-01T03:40:15.764Z,62.00
2024-03-01T03:42:44.915Z,62.57
2024-03-01T03:45:13.317Z,63.46
2024-03-01T03:47:41.223Z,62.88
2024-03-01T03:50:11.194Z,63.58
2024-03-01T03:52:39.372Z,62.86
2024-03-01T03:55:08.251Z,62.52
2024-03-01T03:57:37.196Z,62.25
2024-03-01T04:00:09.818Z,62.57
2024-03-01T04:02:38.192Z,63.18
2024-03-01T04:05:07.889Z,63.19
2024-03-01T04:07:37.792Z,64.03
2024-03-01T04:10:07.518Z,64.62
2024-03-01T04:12:37.199Z,63.93
2024-03-01T04:15:06.793Z,63.43
2024-03-01T04:17:35.795Z,64.22
2024-03-01T04:20:05.382Z,63.92
2024-03-01T04:22:36.410Z,63.60
2024-03-01T04:25:07.172Z,64.20
2024-03-01T04:27:35.814Z,63.89
2024-03-01T04:30:03.879Z,63.54
2024-03-01T04:32:31.912Z,63.61
2024-03-01T04:35:00.257Z,63.32
2024-03-01T04:37:28.748Z,63.10
2024-03-01T04:39:56.828Z,62.48
2024-03-01T04:42:26.888Z,62.72
2024-03-01T04:44:54.838Z,62.63
2024-03-01T04:47:22.734Z,62.71
2024-03-01T04:49:51.111Z,63.74
2024-03-01T04:52:19.069Z,63.13
2024-03-01T04:54:48.562Z,63.21
2024-03-01T04:57:17.367Z,62.86
2024-03-01T04:59:46.613Z,62.70
2024-03-01T05:02:14.480Z,62.58
2024-03-01T05:04:44.726Z,62.65
2024-03-01T05:07:12.924Z,62.54
2024-03-01T05:09:44.168Z,62.42
2024-03-01T05:12:15.225Z,62.86
2024-03-01T05:14:43.269Z,62.67
2024-03-01T05:17:14.791Z,62.55
2024-03-01T05:19:43.019Z,62.25
2024-03-01T05:22:14.453Z,62.18
2024-03-01T05:24:42.907Z,61.96
2024-03-01T05:27:13.949Z,62.11
2024-03-01T05:29:42.393Z,61.87
2024-03-01T05:32:10.557Z,62.11
2024-03-01T05:34:40.154Z,61.56
2024-03-01T05:37:08.555Z,61.59
2024-03-01T05:39:36.505Z,61.31
2024-03-01T05:42:07.393Z,61.08
2024-03-01T05:44:35.601Z,61.11
2024-03-01T05:47:04.381Z,61.12
2024-03-01T05:49:32.327Z,61.40
2024-03-01T05:52:01.851Z,61.86
2024-03-01T05:54:30.879Z,62.09
2024-03-01T05:56:59.344Z,62.62
2024-03-01T05:59:27.528Z,63.05
2024-03-01T06:01:55.623Z,62.93
2024-03-01T06:04:23.858Z,62.87
2024-03-01T06:06:51.752Z,62.64
2024-03-01T06:09:21.377Z,62.15
2024-03-01T06:11:51.976Z,62.73
2024-03-01T06:14:20.163Z,62.86
2024-03-01T06:16:48.917Z,63.99
2024-03-01T06:19:18.329Z,63.93
2024-03-01T06:21:46.399Z,64.11
2024-03-01T06:24:15.351Z,64.75
2024-03-01T06:26:44.750Z,65.00
2024-03-01T06:29:12.640Z,65.09
2024-03-01T06:31:40.703Z,64.58
2024-03-01T06:34:08.939Z,64.44
2024-03-01T06:36:36.970Z,64.78
2024-03-01T06:39:05.146Z,65.84
2024-03-01T06:41:33.251Z,65.42
2024-03-01T06:44:02.706Z,65.12
2024-03-01T06:46:31.057Z,65.12
2024-03-01T06:49:00.219Z,65.18
2024-03-01T06:51:28.102Z,64.80
2024-03-01T06:53:55.970Z,64.78
2024-03-01T06:56:24.406Z,64.74
2024-03-01T06:58:52.346Z,65.11
2024-03-01T07:01:21.721Z,64.83
2024-03-01T07:03:49.932Z,65.41
2024-03-01T07:06:17.804Z,64.23
2024-03-01T07:08:45.668Z,63.71
2024-03-01T07:11:13.768Z,64.40
2024-03-01T07:13:41.645Z,65.28
2024-03-01T07:16:09.558Z,64.91
2024-03-01T07:18:39.111Z,65.26
2024-03-01T07:21:08.748Z,64.89
2024-03-01T07:23:37.464Z,65.16
2024-03-01T07:26:07.424Z,64.91
2024-03-01T07:28:36.152Z,64.20
2024-03-01T07:31:05.094Z,65.02
2024-03-01T07:33:33.380Z,65.17
2024-03-01T07:36:02.658Z,65.08
2024-03-01T07:38:30.540Z,64.45
2024-03-01T07:40:58.618Z,63.42
2024-03-01T07:43:26.640Z,65.01
2024-03-01T07:45:54.902Z,64.50
2024-03-01T07:48:23.075Z,64.20
2024-03-01T07:50:50.936Z,63.85
2024-03-01T07:53:20.145Z,64.40
2024-03-01T07:55:48.542Z,64.24
2024-03-01T07:58:16.794Z,64.87
2024-03-01T08:00:44.842Z,65.10
2024-03-01T08:03:13.159Z,64.52
2024-03-01T08:05:41.748Z,64.91
2024-03-01T08:08:11.122Z,65.81
2024-03-01T08:10:43.866Z,64.74
2024-03-01T08:13:12.903Z,64.77
2024-03-01T08:15:41.940Z,65.14
2024-03-01T08:18:18.918Z,64.68
2024-03-01T08:21:07.293Z,64.37
2024-03-01T08:23:39.571Z,64.81
2024-03-01T08:26:14.434Z,64.70
2024-03-01T08:28:45.525Z,63.92
2024-03-01T08:31:23.386Z,64.72
2024-03-01T08:33:59.663Z,64.25
2024-03-01T08:36:28.554Z,64.11
2024-03-01T08:39:12.554Z,64.45
2024-03-01T08:41:44.047Z,63.89
2024-03-01T08:44:51.138Z,63.89
2024-03-01T08:47:26.757Z,64.47
2024-03-01T08:50:25.055Z,64.65
2024-03-01T08:52:53.880Z,64.47
2024-03-01T08:55:42.122Z,64.52
2024-03-01T08:58:18.565Z,64.22
2024-03-01T09:00:49.945Z,63.27
2024-03-01T09:03:25.068Z,63.75
2024-03-01T09:05:56.392Z,63.12
2024-03-01T09:08:26.523Z,64.10
2024-03-01T09:10:56.771Z,63.87
2024-03-01T09:13:27.980Z,63.42
2024-03-01T09:15:58.209Z,63.50
2024-03-01T09:18:43.726Z,64.02
2024-03-01T09:21:45.241Z,63.48
2024-03-01T09:24:17.250Z,64.32
2024-03-01T09:26:46.188Z,63.49
2024-03-01T09:29:37.049Z,63.67
2024-03-01T09:32:06.538Z,63.81
2024-03-01T09:34:37.001Z,63.56
2024-03-01T09:37:07.739Z,63.25
2024-03-01T09:39:36.265Z,62.70
2024-03-01T09:42:38.080Z,62.74
2024-03-01T09:45:40.482Z,63.11
2024-03-01T09:48:28.926Z,62.57
2024-03-01T09:51:13.693Z,62.88
2024-03-01T09:54:02.741Z,63.16
2024-03-01T09:56:39.130Z,62.94
2024-03-01T09:59:15.210Z,62.83
2024-03-01T10:01:49.994Z,62.61
2024-03-01T10:04:32.186Z,62.74
2024-03-01T10:07:06.319Z,62.41
2024-03-01T10:09:51.647Z,62.55
2024-03-01T10:12:35.581Z,62.08
2024-03-01T10:15:05.360Z,61.63
2024-03-01T10:17:49.380Z,61.93
2024-03-01T10:20:26.419Z,61.01
2024-03-01T10:23:11.960Z,61.62
2024-03-01T10:25:48.907Z,61.56
2024-03-01T10:28:32.260Z,60.93
2024-03-01T10:31:12.508Z,61.32
2024-03-01T10:33:54.252Z,61.37
2024-03-01T10:36:30.988Z,61.34
2024-03-01T10:39:05.144Z,62.03
2024-03-01T10:41:49.564Z,61.92
2024-03-01T10:44:22.707Z,61.76
2024-03-01T10:46:56.789Z,61.85
2024-03-01T10:49:30.991Z,60.97
2024-03-01T10:52:04.016Z,61.35
2024-03-01T10:54:35.818Z,61.04
2024-03-01T10:57:09.329Z,60.62
2024-03-01T10:59:48.906Z,61.62
2024-03-01T11:02:22.096Z,60.29
2024-03-01T11:05:03.963Z,61.14
2024-03-01T11:07:44.984Z,60.57
2024-03-01T11:10:21.975Z,61.33
2024-03-01T11:12:53.684Z,60.77
2024-03-01T11:15:22.653Z,60.19
2024-03-01T11:17:52.229Z,60.99
2024-03-01T11:20:23.990Z,60.63
2024-03-01T11:23:00.511Z,60.58
2024-03-01T11:25:36.987Z,60.66
2024-03-01T11:28:06.773Z,60.60
2024-03-01T11:30:46.586Z,60.45
2024-03-01T11:33:17.364Z,60.03
2024-03-01T11:35:48.924Z,60.05
2024-03-01T11:38:28.115Z,60.37
2024-03-01T11:41:11.262Z,60.01
2024-03-01T11:43:52.174Z,59.65
2024-03-01T11:46:36.886Z,59.87
2024-03-01T11:49:17.935Z,59.52
2024-03-01T11:51:59.994Z,59.46
2024-03-01T11:54:48.999Z,59.35
2024-03-01T11:57:31.515Z,58.26
2024-03-01T12:00:13.168Z,59.32
2024-03-01T12:03:06.425Z,59.12
2024-03-01T12:05:51.075Z,58.39
2024-03-01T12:08:35.687Z,58.32
2024-03-01T12:11:17.397Z,57.73
2024-03-01T12:13:54.464Z,58.28
2024-03-01T12:16:35.160Z,58.86
2024-03-01T12:19:15.149Z,59.08
2024-03-01T12:22:01.379Z,58.59
2024-03-01T12:24:38.243Z,58.33
2024-03-01T12:27:13.472Z,58.37
2024-03-01T12:29:51.857Z,57.97
2024-03-01T12:32:26.680Z,58.19
2024-03-01T12:35:10.828Z,58.63
2024-03-01T12:37:51.218Z,57.63
2024-03-01T12:40:21.573Z,58.25
2024-03-01T12:43:21.651Z,58.43
2024-03-01T12:46:23.641Z,57.44
2024-03-01T12:49:00.327Z,58.07
2024-03-01T12:51:32.234Z,58.00
2024-03-01T12:54:03.967Z,58.43
2024-03-01T12:56:49.784Z,58.28
2024-03-01T12:59:34.793Z,57.48
2024-03-01T13:02:32.612Z,57.81
2024-03-01T13:05:14.531Z,57.58
2024-03-01T13:07:43.367Z,57.92
2024-03-01T13:10:15.296Z,58.46
2024-03-01T13:12:46.932Z,58.13
2024-03-01T13:15:19.635Z,58.14
2024-03-01T13:18:01.937Z,57.95
2024-03-01T13:20:32.036Z,57.03
2024-03-01T13:23:20.943Z,57.97
2024-03-01T13:26:07.509Z,57.16
2024-03-01T13:28:41.898Z,57.69
2024-03-01T13:31:16.458Z,57.50
2024-03-01T13:33:48.278Z,57.37
2024-03-01T13:36:24.825Z,57.73
2024-03-01T13:39:11.656Z,57.57
2024-03-01T13:41:41.810Z,56.99
2024-03-01T13:44:24.249Z,57.80
2024-03-01T13:46:58.899Z,57.04
2024-03-01T13:49:38.210Z,57.70
2024-03-01T13:52:08.797Z,57.87
2024-03-01T13:54:37.453Z,57.93
2024-03-01T13:57:07.635Z,57.78
2024-03-01T13:59:37.057Z,57.77
2024-03-01T14:02:06.001Z,57.72
2024-03-01T14:04:34.521Z,57.69
2024-03-01T14:07:02.586Z,57.61
2024-03-01T14:09:30.667Z,57.61
2024-03-01T14:11:58.878Z,57.51
2024-03-01T14:14:27.239Z,57.48
2024-03-01T14:16:59.305Z,57.71
2024-03-01T14:19:27.574Z,57.56
2024-03-01T14:21:57.994Z,57.86
2024-03-01T14:24:26.698Z,57.78
2024-03-01T14:26:54.843Z,57.64
2024-03-01T14:29:22.934Z,57.97
2024-03-01T14:32:11.132Z,58.07
2024-03-01T14:34:40.321Z,57.25
2024-03-01T14:37:11.167Z,57.76
2024-03-01T14:39:40.523Z,57.55
2024-03-01T14:42:18.208Z,57.69
2024-03-01T14:44:46.590Z,57.42
2024-03-01T14:47:16.012Z,57.53
2024-03-01T14:49:44.387Z,57.49
2024-03-01T14:52:13.510Z,57.55
2024-03-01T14:54:41.710Z,57.75
2024-03-01T14:57:09.758Z,57.71
2024-03-01T14:59:38.553Z,57.51
2024-03-01T15:02:06.593Z,57.41
2024-03-01T15:04:36.053Z,57.62
2024-03-01T15:07:05.570Z,57.61
2024-03-01T15:09:45.095Z,57.69
2024-03-01T15:12:13.784Z,57.60
2024-03-01T15:14:41.775Z,57.69
2024-03-01T15:17:10.059Z,57.72
2024-03-01T15:19:44.130Z,57.79
2024-03-01T15:22:13.745Z,57.68
2024-03-01T15:24:42.113Z,57.70
2024-03-01T15:27:10.038Z,57.74
2024-03-01T15:29:38.000Z,57.66
2024-03-01T15:32:07.557Z,57.78
2024-03-01T15:34:35.500Z,57.89
2024-03-01T15:37:05.076Z,57.71
2024-03-01T15:39:33.216Z,57.70
2024-03-01T15:42:01.210Z,57.68
2024-03-01T15:44:29.101Z,57.74
2024-03-01T15:46:57.269Z,57.72
2024-03-01T15:49:25.245Z,57.78
2024-03-01T15:51:54.488Z,57.66
2024-03-01T15:54:24.050Z,57.89
2024-03-01T15:56:51.904Z,57.89
2024-03-01T15:59:19.809Z,57.95
2024-03-01T16:01:48.018Z,57.95
2024-03-01T16:04:16.623Z,57.95
2024-03-01T16:06:44.672Z,58.02
2024-03-01T16:09:13.054Z,58.01
2024-03-01T16:11:44.019Z,58.24
2024-03-01T16:14:13.189Z,58.29
2024-03-01T16:16:42.185Z,58.36
2024-03-01T16:19:11.029Z,58.30
2024-03-01T16:21:40.278Z,58.13
2024-03-01T16:24:10.402Z,58.20
2024-03-01T16:26:38.837Z,58.29
2024-03-01T16:29:09.107Z,58.32
2024-03-01T16:31:37.360Z,58.29
2024-03-01T16:34:05.849Z,58.35
2024-03-01T16:36:33.839Z,58.29
2024-03-01T16:39:02.379Z,58.38
2024-03-01T16:41:40.166Z,58.53
2024-03-01T16:44:24.676Z,58.83
2024-03-01T16:46:52.742Z,58.87
2024-03-01T16:49:37.268Z,58.73
2024-03-01T16:52:07.736Z,58.97
2024-03-01T16:54:36.331Z,58.69
2024-03-01T16:57:08.711Z,58.69
2024-03-01T16:59:39.567Z,58.69
2024-03-01T17:02:21.117Z,58.60
2024-03-01T17:05:13.359Z,58.54
2024-03-01T17:08:01.589Z,58.39
2024-03-01T17:22:30.779Z,59.11
2024-03-01T17:24:58.929Z,59.05
2024-03-01T17:27:26.898Z,58.96
2024-03-01T17:29:54.957Z,58.90
2024-03-01T17:32:23.549Z,59.14
2024-03-01T17:34:51.517Z,59.04
2024-03-01T17:37:20.824Z,59.07
2024-03-01T17:39:50.396Z,59.23
2024-03-01T17:42:19.057Z,59.63
2024-03-01T17:44:47.428Z,60.23
2024-03-01T17:47:15.669Z,59.99
2024-03-01T17:49:43.916Z,59.83
2024-03-01T17:52:12.315Z,59.67
2024-03-01T17:54:40.730Z,59.55
2024-03-01T17:57:12.363Z,60.13
2024-03-01T17:59:40.868Z,60.57
2024-03-01T18:02:08.969Z,60.48
2024-03-01T18:04:39.612Z,60.30
2024-03-01T18:07:07.770Z,60.34
2024-03-01T18:09:35.944Z,60.26
2024-03-01T18:12:04.609Z,60.30
2024-03-01T18:14:34.440Z,60.31
2024-03-01T18:17:02.857Z,60.17
2024-03-01T18:19:31.342Z,60.44
2024-03-01T18:22:01.227Z,60.43
2024-03-01T18:24:31.985Z,60.18
2024-03-01T18:27:00.306Z,60.32
2024-03-01T18:29:30.584Z,60.21
2024-03-01T18:32:01.313Z,60.26
2024-03-01T18:34:29.569Z,60.33
2024-03-01T18:36:57.614Z,60.86
2024-03-01T18:39:25.698Z,61.02
2024-03-01T18:41:53.933Z,62.00
2024-03-01T18:44:21.986Z,62.44
2024-03-01T18:46:50.059Z,62.11
2024-03-01T18:49:20.123Z,61.57
2024-03-01T18:51:48.166Z,61.79
2024-03-01T18:54:16.238Z,62.37
2024-03-01T18:56:44.694Z,62.30
2024-03-01T18:59:14.973Z,62.41
2024-03-01T19:01:43.275Z,63.00
2024-03-01T19:04:11.826Z,63.48
2024-03-01T19:06:41.218Z,63.65
2024-03-01T19:09:09.211Z,63.91
2024-03-01T19:11:37.717Z,63.17
2024-03-01T19:14:06.970Z,62.65
2024-03-01T19:16:35.094Z,62.59
2024-03-01T19:19:04.465Z,62.61
2024-03-01T19:21:32.779Z,62.12
2024-03-01T19:24:02.212Z,62.01
2024-03-01T19:26:30.411Z,61.92
2024-03-01T19:29:00.008Z,62.24
2024-03-01T19:31:28.117Z,62.08
2024-03-01T19:33:56.853Z,62.11
2024-03-01T19:36:24.899Z,61.82
2024-03-01T19:38:53.028Z,61.60
2024-03-01T19:41:22.660Z,61.62
2024-03-01T19:43:50.716Z,61.57
2024-03-01T19:46:18.869Z,61.45
2024-03-01T19:48:48.474Z,61.32
2024-03-01T19:51:17.280Z,61.36
2024-03-01T19:53:45.267Z,61.33
2024-03-01T19:56:13.708Z,61.40
2024-03-01T19:58:43.014Z,61.23
2024-03-01T20:01:11.100Z,61.92
2024-03-01T20:03:39.441Z,61.91
2024-03-01T20:06:07.477Z,62.44
2024-03-01T20:08:35.635Z,62.63
2024-03-01T20:11:05.697Z,63.46
2024-03-01T20:13:33.771Z,63.76
2024-03-01T20:16:03.215Z,64.04
2024-03-01T20:18:31.544Z,63.68
2024-03-01T20:21:00.363Z,65.24
2024-03-01T20:23:30.563Z,64.34
2024-03-01T20:26:00.348Z,63.80
2024-03-01T20:28:28.350Z,63.36
2024-03-01T20:30:56.437Z,64.06
2024-03-01T20:33:26.210Z,64.22
2024-03-01T20:35:54.680Z,63.62
2024-03-01T20:38:23.082Z,63.98
2024-03-01T20:40:52.941Z,63.97
2024-03-01T20:43:21.448Z,66.02
2024-03-01T20:45:49.824Z,64.68
2024-03-01T20:48:18.044Z,64.17
2024-03-01T20:50:48.029Z,64.34
2024-03-01T20:53:15.966Z,64.19
2024-03-01T20:55:44.230Z,63.51
2024-03-01T20:58:14.025Z,63.31
2024-03-01T21:00:42.166Z,63.26
2024-03-01T21:03:10.459Z,63.48
2024-03-01T21:05:38.449Z,62.98
2024-03-01T21:08:08.705Z,62.99
2024-03-01T21:10:37.643Z,62.85
2024-03-01T21:13:08.348Z,62.88
2024-03-01T21:15:36.692Z,62.88
2024-03-01T21:18:06.090Z,62.77
2024-03-01T21:20:34.501Z,62.79
2024-03-01T21:23:02.813Z,62.84
2024-03-01T21:25:32.221Z,62.70
2024-03-01T21:28:00.264Z,62.78
2024-03-01T21:30:29.546Z,62.85
2024-03-01T21:33:00.482Z,62.96
2024-03-01T21:35:28.889Z,63.34
2024-03-01T21:37:57.105Z,64.16
2024-03-01T21:40:25.834Z,65.54
2024-03-01T21:42:55.478Z,65.45
2024-03-01T21:45:23.747Z,65.70
2024-03-01T21:47:51.834Z,66.09
2024-03-01T21:50:20.309Z,65.76
2024-03-01T21:52:49.647Z,64.88
2024-03-01T21:55:19.266Z,64.49
2024-03-01T21:57:47.829Z,64.18
2024-03-01T22:00:17.850Z,64.15
2024-03-01T22:02:46.213Z,64.28
2024-03-01T22:05:14.330Z,64.20
2024-03-01T22:07:45.059Z,64.40
2024-03-01T22:10:15.558Z,64.44
2024-03-01T22:12:43.763Z,63.79
2024-03-01T22:15:12.024Z,63.52
2024-03-01T22:17:41.670Z,63.35
2024-03-01T22:20:10.792Z,63.43
2024-03-01T22:22:38.864Z,63.46
2024-03-01T22:25:08.025Z,63.31
2024-03-01T22:27:36.664Z,63.83
2024-03-01T22:30:07.366Z,63.96
2024-03-01T22:32:35.927Z,63.85
2024-03-01T22:35:05.932Z,64.20
2024-03-01T22:37:37.804Z,64.23
2024-03-01T22:40:07.515Z,64.43
2024-03-01T22:42:36.866Z,63.98
2024-03-01T22:45:06.187Z,64.27
2024-03-01T22:47:34.540Z,64.03
2024-03-01T22:50:02.817Z,64.20
2024-03-01T22:52:33.883Z,64.31
2024-03-01T22:55:02.517Z,63.71
2024-03-01T22:57:37.578Z,63.61
2024-03-01T23:00:20.446Z,63.67
2024-03-01T23:02:52.101Z,63.33
2024-03-01T23:05:48.609Z,63.31
2024-03-01T23:08:40.981Z,64.79
2024-03-01T23:11:34.649Z,64.23
2024-03-01T23:14:04.245Z,63.73
2024-03-01T23:16:32.567Z,63.73
2024-03-01T23:19:00.927Z,64.06
2024-03-01T23:21:29.294Z,64.83
2024-03-01T23:23:59.523Z,65.28
2024-03-01T23:26:27.621Z,64.87
2024-03-01T23:28:55.936Z,64.21
2024-03-01T23:31:24.251Z,63.95
2024-03-01T23:33:52.658Z,63.82
2024-03-01T23:36:20.720Z,64.21
2024-03-01T23:38:51.832Z,65.23
2024-03-01T23:41:21.314Z,65.02
2024-03-01T23:43:49.557Z,64.52
2024-03-01T23:46:17.657Z,64.09
2024-03-01T23:48:45.747Z,63.76
2024-03-01T23:51:14.176Z,63.69
2024-03-01T23:53:43.061Z,63.72
2024-03-01T23:56:11.173Z,64.36
2024-03-01T23:58:41.835Z,64.17
